sensor_id;sensor_type;location;lat;lon;timestamp;P1;durP1;ratioP1;P2;durP2;ratioP2
10052;SDS011;52418;53.134;8.236;2022-09-16T00:00:41;1.70;;;1.60;;
10052;SDS011;52418;53.134;8.236;2022-09-16T00:03:07;1.60;;;1.50;;
10052;SDS011;52418;53.134;8.236;2022-09-16T00:05:32;1.70;;;1.60;;
10052;SDS011;52418;53.134;8.236;2022-09-16T00:07:57;1.60;;;1.50;;
10052;SDS011;52418;53.134;8.236;2022-09-16T00:10:22;1.60;;;1.50;;
10052;SDS011;52418;53.134;8.236;2022-09-16T00:12:48;1.70;;;1.60;;
10052;SDS011;52418;53.134;8.236;2022-09-16T00:15:13;1.63;;;1.53;;
10052;SDS011;52418;53.134;8.236;2022-09-16T00:17:39;1.60;;;1.50;;
10052;SDS011;52418;53.134;8.236;2022-09-16T00:22:32;1.60;;;1.50;;
10052;SDS011;52418;53.134;8.236;2022-09-16T00:24:58;1.60;;;1.50;;
10052;SDS011;52418;53.134;8.236;2022-09-16T00:27:23;1.60;;;1.50;;
10052;SDS011;52418;53.134;8.236;2022-09-16T00:29:48;1.50;;;1.40;;
10052;SDS011;52418;53.134;8.236;2022-09-16T00:32:14;1.60;;;1.50;;
10052;SDS011;52418;53.134;8.236;2022-09-16T00:34:39;1.70;;;1.60;;
10052;SDS011;52418;53.134;8.236;2022-09-16T00:37:04;1.60;;;1.50;;
10052;SDS011;52418;53.134;8.236;2022-09-16T00:39:32;1.70;;;1.60;;
10052;SDS011;52418;53.134;8.236;2022-09-16T00:41:57;1.47;;;1.40;;
10052;SDS011;52418;53.134;8.236;2022-09-16T00:47:06;1.50;;;1.40;;
10052;SDS011;52418;53.134;8.236;2022-09-16T00:49:31;1.57;;;1.47;;
10052;SDS011;52418;53.134;8.236;2022-09-16T00:51:58;1.60;;;1.50;;
10052;SDS011;52418;53.134;8.236;2022-09-16T00:54:24;1.50;;;1.40;;
10052;SDS011;52418;53.134;8.236;2022-09-16T00:56:50;1.50;;;1.40;;
10052;SDS011;52418;53.134;8.236;2022-09-16T00:59:18;1.40;;;1.40;;
10052;SDS011;52418;53.134;8.236;2022-09-16T01:01:44;1.50;;;1.40;;
10052;SDS011;52418;53.134;8.236;2022-09-16T01:04:13;1.57;;;1.47;;
10052;SDS011;52418;53.134;8.236;2022-09-16T01:06:39;1.57;;;1.47;;
10052;SDS011;52418;53.134;8.236;2022-09-16T01:09:05;1.60;;;1.50;;
10052;SDS011;52418;53.134;8.236;2022-09-16T01:11:30;1.70;;;1.60;;
10052;SDS011;52418;53.134;8.236;2022-09-16T01:13:55;1.50;;;1.40;;
10052;SDS011;52418;53.134;8.236;2022-09-16T01:16:40;1.67;;;1.57;;
10052;SDS011;52418;53.134;8.236;2022-09-16T01:19:14;1.50;;;1.40;;
10052;SDS011;52418;53.134;8.236;2022-09-16T01:21:44;1.50;;;1.40;;
10052;SDS011;52418;53.134;8.236;2022-09-16T01:29:32;1.60;;;1.50;;
10052;SDS011;52418;53.134;8.236;2022-09-16T01:32:05;1.30;;;1.30;;
10052;SDS011;52418;53.134;8.236;2022-09-16T01:39:47;1.50;;;1.40;;
10052;SDS011;52418;53.134;8.236;2022-09-16T01:44:56;1.60;;;1.50;;
10052;SDS011;52418;53.134;8.236;2022-09-16T01:47:30;1.50;;;1.40;;
10052;SDS011;52418;53.134;8.236;2022-09-16T01:55:30;1.50;;;1.40;;
10052;SDS011;52418;53.134;8.236;2022-09-16T02:00:41;1.50;;;1.40;;
10052;SDS011;52418;53.134;8.236;2022-09-16T02:03:09;1.50;;;1.40;;
10052;SDS011;52418;53.134;8.236;2022-09-16T02:05:43;1.50;;;1.40;;
10052;SDS011;52418;53.134;8.236;2022-09-16T02:08:14;1.47;;;1.37;;
10052;SDS011;52418;53.134;8.236;2022-09-16T02:10:42;1.60;;;1.50;;
10052;SDS011;52418;53.134;8.236;2022-09-16T02:16:13;1.60;;;1.50;;
10052;SDS011;52418;53.134;8.236;2022-09-16T02:18:40;1.50;;;1.40;;
10052;SDS011;52418;53.134;8.236;2022-09-16T02:21:06;1.53;;;1.43;;
10052;SDS011;52418;53.134;8.236;2022-09-16T02:23:39;1.57;;;1.47;;
10052;SDS011;52418;53.134;8.236;2022-09-16T02:26:05;1.50;;;1.40;;
10052;SDS011;52418;53.134;8.236;2022-09-16T02:28:32;1.50;;;1.40;;
10052;SDS011;52418;53.134;8.236;2022-09-16T02:30:59;1.30;;;1.30;;
10052;SDS011;52418;53.134;8.236;2022-09-16T02:33:29;1.57;;;1.47;;
10052;SDS011;52418;53.134;8.236;2022-09-16T02:35:54;1.40;;;1.37;;
10052;SDS011;52418;53.134;8.236;2022-09-16T02:38:21;1.50;;;1.40;;
10052;SDS011;52418;53.134;8.236;2022-09-16T02:40:58;1.50;;;1.40;;
10052;SDS011;52418;53.134;8.236;2022-09-16T02:43:24;1.67;;;1.57;;
10052;SDS011;52418;53.134;8.236;2022-09-16T02:46:06;1.50;;;1.40;;
10052;SDS011;52418;53.134;8.236;2022-09-16T02:48:48;1.30;;;1.30;;
10052;SDS011;52418;53.134;8.236;2022-09-16T02:53:50;1.50;;;1.40;;
10052;SDS011;52418;53.134;8.236;2022-09-16T02:56:20;1.30;;;1.30;;
10052;SDS011;52418;53.134;8.236;2022-09-16T02:58:46;1.50;;;1.40;;
10052;SDS011;52418;53.134;8.236;2022-09-16T03:01:12;1.50;;;1.40;;
10052;SDS011;52418;53.134;8.236;2022-09-16T03:03:37;1.30;;;1.30;;
10052;SDS011;52418;53.134;8.236;2022-09-16T03:08:28;1.30;;;1.30;;
10052;SDS011;52418;53.134;8.236;2022-09-16T03:10:53;1.40;;;1.40;;
10052;SDS011;52418;53.134;8.236;2022-09-16T03:13:27;1.30;;;1.30;;
10052;SDS011;52418;53.134;8.236;2022-09-16T03:16:11;1.20;;;1.20;;
10052;SDS011;52418;53.134;8.236;2022-09-16T03:21:14;1.30;;;1.30;;
10052;SDS011;52418;53.134;8.236;2022-09-16T03:26:24;1.20;;;1.20;;
10052;SDS011;52418;53.134;8.236;2022-09-16T03:31:30;1.40;;;1.37;;
10052;SDS011;52418;53.134;8.236;2022-09-16T03:36:22;1.50;;;1.40;;
10052;SDS011;52418;53.134;8.236;2022-09-16T03:38:49;1.30;;;1.30;;
10052;SDS011;52418;53.134;8.236;2022-09-16T03:41:16;1.30;;;1.30;;
10052;SDS011;52418;53.134;8.236;2022-09-16T03:43:54;1.20;;;1.20;;
10052;SDS011;52418;53.134;8.236;2022-09-16T03:46:19;1.30;;;1.30;;
10052;SDS011;52418;53.134;8.236;2022-09-16T03:48:45;1.30;;;1.30;;
10052;SDS011;52418;53.134;8.236;2022-09-16T03:51:10;1.20;;;1.20;;
10052;SDS011;52418;53.134;8.236;2022-09-16T03:53:36;1.30;;;1.30;;
10052;SDS011;52418;53.134;8.236;2022-09-16T03:56:01;1.30;;;1.30;;
10052;SDS011;52418;53.134;8.236;2022-09-16T03:58:26;1.30;;;1.30;;
10052;SDS011;52418;53.134;8.236;2022-09-16T04:00:51;1.30;;;1.30;;
10052;SDS011;52418;53.134;8.236;2022-09-16T04:03:17;1.20;;;1.20;;
10052;SDS011;52418;53.134;8.236;2022-09-16T04:05:43;1.30;;;1.30;;
10052;SDS011;52418;53.134;8.236;2022-09-16T04:08:08;1.50;;;1.40;;
10052;SDS011;52418;53.134;8.236;2022-09-16T04:10:33;1.27;;;1.23;;
10052;SDS011;52418;53.134;8.236;2022-09-16T04:12:58;1.10;;;1.10;;
10052;SDS011;52418;53.134;8.236;2022-09-16T04:15:24;1.20;;;1.20;;
10052;SDS011;52418;53.134;8.236;2022-09-16T04:17:49;1.20;;;1.20;;
10052;SDS011;52418;53.134;8.236;2022-09-16T04:20:14;1.27;;;1.27;;
10052;SDS011;52418;53.134;8.236;2022-09-16T04:22:39;1.30;;;1.30;;
10052;SDS011;52418;53.134;8.236;2022-09-16T04:25:05;1.20;;;1.20;;
10052;SDS011;52418;53.134;8.236;2022-09-16T04:27:30;1.30;;;1.30;;
10052;SDS011;52418;53.134;8.236;2022-09-16T04:29:58;1.17;;;1.17;;
10052;SDS011;52418;53.134;8.236;2022-09-16T04:32:23;1.20;;;1.20;;
10052;SDS011;52418;53.134;8.236;2022-09-16T04:34:49;1.15;;;1.15;;
10052;SDS011;52418;53.134;8.236;2022-09-16T04:37:14;1.20;;;1.20;;
10052;SDS011;52418;53.134;8.236;2022-09-16T04:39:44;1.10;;;1.10;;
10052;SDS011;52418;53.134;8.236;2022-09-16T04:42:11;1.10;;;1.10;;
10052;SDS011;52418;53.134;8.236;2022-09-16T04:44:36;1.10;;;1.10;;
10052;SDS011;52418;53.134;8.236;2022-09-16T04:47:01;1.20;;;1.20;;
10052;SDS011;52418;53.134;8.236;2022-09-16T04:49:26;1.10;;;1.10;;
10052;SDS011;52418;53.134;8.236;2022-09-16T04:51:51;1.20;;;1.20;;
10052;SDS011;52418;53.134;8.236;2022-09-16T04:54:17;1.10;;;1.10;;
10052;SDS011;52418;53.134;8.236;2022-09-16T04:56:42;1.10;;;1.10;;
10052;SDS011;52418;53.134;8.236;2022-09-16T04:59:08;1.10;;;1.10;;
10052;SDS011;52418;53.134;8.236;2022-09-16T05:01:35;1.00;;;1.00;;
10052;SDS011;52418;53.134;8.236;2022-09-16T05:04:01;1.10;;;1.10;;
10052;SDS011;52418;53.134;8.236;2022-09-16T05:06:27;1.00;;;1.00;;
10052;SDS011;52418;53.134;8.236;2022-09-16T05:08:54;1.10;;;1.10;;
10052;SDS011;52418;53.134;8.236;2022-09-16T05:11:21;1.00;;;1.00;;
10052;SDS011;52418;53.134;8.236;2022-09-16T05:13:49;1.00;;;1.00;;
10052;SDS011;52418;53.134;8.236;2022-09-16T05:16:16;0.90;;;0.90;;
10052;SDS011;52418;53.134;8.236;2022-09-16T05:18:42;0.93;;;0.93;;
10052;SDS011;52418;53.134;8.236;2022-09-16T05:21:08;1.00;;;1.00;;
10052;SDS011;52418;53.134;8.236;2022-09-16T05:23:35;1.10;;;1.10;;
10052;SDS011;52418;53.134;8.236;2022-09-16T05:26:12;1.10;;;1.10;;
10052;SDS011;52418;53.134;8.236;2022-09-16T05:28:38;1.00;;;1.00;;
10052;SDS011;52418;53.134;8.236;2022-09-16T05:33:38;1.07;;;1.07;;
10052;SDS011;52418;53.134;8.236;2022-09-16T05:36:04;1.00;;;1.00;;
10052;SDS011;52418;53.134;8.236;2022-09-16T05:38:30;1.10;;;1.10;;
10052;SDS011;52418;53.134;8.236;2022-09-16T05:40:59;1.07;;;1.07;;
10052;SDS011;52418;53.134;8.236;2022-09-16T05:43:24;1.10;;;1.10;;
10052;SDS011;52418;53.134;8.236;2022-09-16T05:45:50;1.00;;;1.00;;
10052;SDS011;52418;53.134;8.236;2022-09-16T05:48:15;1.00;;;1.00;;
10052;SDS011;52418;53.134;8.236;2022-09-16T05:50:41;1.10;;;1.10;;
10052;SDS011;52418;53.134;8.236;2022-09-16T05:53:15;1.00;;;1.00;;
10052;SDS011;52418;53.134;8.236;2022-09-16T05:55:40;1.07;;;1.07;;
10052;SDS011;52418;53.134;8.236;2022-09-16T06:00:34;1.20;;;1.20;;
10052;SDS011;52418;53.134;8.236;2022-09-16T06:02:59;1.00;;;1.00;;
10052;SDS011;52418;53.134;8.236;2022-09-16T06:05:24;1.10;;;1.10;;
10052;SDS011;52418;53.134;8.236;2022-09-16T06:07:49;1.10;;;1.10;;
10052;SDS011;52418;53.134;8.236;2022-09-16T06:10:14;1.10;;;1.10;;
10052;SDS011;52418;53.134;8.236;2022-09-16T06:12:39;1.10;;;1.10;;
10052;SDS011;52418;53.134;8.236;2022-09-16T06:15:05;1.10;;;1.10;;
10052;SDS011;52418;53.134;8.236;2022-09-16T06:17:30;1.00;;;1.00;;
10052;SDS011;52418;53.134;8.236;2022-09-16T06:19:55;1.20;;;1.20;;
10052;SDS011;52418;53.134;8.236;2022-09-16T06:22:21;1.20;;;1.20;;
10052;SDS011;52418;53.134;8.236;2022-09-16T06:24:46;1.10;;;1.10;;
10052;SDS011;52418;53.134;8.236;2022-09-16T06:27:11;1.10;;;1.10;;
10052;SDS011;52418;53.134;8.236;2022-09-16T06:29:36;1.20;;;1.20;;
10052;SDS011;52418;53.134;8.236;2022-09-16T06:32:01;1.20;;;1.20;;
10052;SDS011;52418;53.134;8.236;2022-09-16T06:34:26;1.20;;;1.20;;
10052;SDS011;52418;53.134;8.236;2022-09-16T06:36:52;1.23;;;1.23;;
10052;SDS011;52418;53.134;8.236;2022-09-16T06:39:17;1.30;;;1.30;;
10052;SDS011;52418;53.134;8.236;2022-09-16T06:41:42;1.30;;;1.30;;
10052;SDS011;52418;53.134;8.236;2022-09-16T06:44:08;1.20;;;1.20;;
10052;SDS011;52418;53.134;8.236;2022-09-16T06:46:33;1.20;;;1.20;;
10052;SDS011;52418;53.134;8.236;2022-09-16T06:48:58;1.13;;;1.13;;
10052;SDS011;52418;53.134;8.236;2022-09-16T06:51:28;1.20;;;1.20;;
10052;SDS011;52418;53.134;8.236;2022-09-16T06:53:54;1.30;;;1.30;;
10052;SDS011;52418;53.134;8.236;2022-09-16T06:56:20;1.20;;;1.20;;
10052;SDS011;52418;53.134;8.236;2022-09-16T06:58:48;1.27;;;1.27;;
10052;SDS011;52418;53.134;8.236;2022-09-16T07:01:15;1.20;;;1.20;;
10052;SDS011;52418;53.134;8.236;2022-09-16T07:03:42;1.10;;;1.10;;
10052;SDS011;52418;53.134;8.236;2022-09-16T07:06:08;1.20;;;1.20;;
10052;SDS011;52418;53.134;8.236;2022-09-16T07:08:35;1.30;;;1.30;;
10052;SDS011;52418;53.134;8.236;2022-09-16T07:11:01;1.30;;;1.30;;
10052;SDS011;52418;53.134;8.236;2022-09-16T07:13:26;1.30;;;1.30;;
10052;SDS011;52418;53.134;8.236;2022-09-16T07:15:52;1.30;;;1.30;;
10052;SDS011;52418;53.134;8.236;2022-09-16T07:18:17;1.37;;;1.33;;
10052;SDS011;52418;53.134;8.236;2022-09-16T07:20:42;1.60;;;1.50;;
10052;SDS011;52418;53.134;8.236;2022-09-16T07:23:07;1.30;;;1.30;;
10052;SDS011;52418;53.134;8.236;2022-09-16T07:25:32;1.23;;;1.23;;
10052;SDS011;52418;53.134;8.236;2022-09-16T07:27:58;1.47;;;1.40;;
10052;SDS011;52418;53.134;8.236;2022-09-16T07:30:23;1.30;;;1.30;;
10052;SDS011;52418;53.134;8.236;2022-09-16T07:32:48;1.30;;;1.30;;
10052;SDS011;52418;53.134;8.236;2022-09-16T07:35:13;1.30;;;1.30;;
10052;SDS011;52418;53.134;8.236;2022-09-16T07:37:38;1.30;;;1.30;;
10052;SDS011;52418;53.134;8.236;2022-09-16T07:40:03;1.50;;;1.40;;
10052;SDS011;52418;53.134;8.236;2022-09-16T07:42:29;1.40;;;1.40;;
10052;SDS011;52418;53.134;8.236;2022-09-16T07:44:54;1.50;;;1.40;;
10052;SDS011;52418;53.134;8.236;2022-09-16T07:47:19;1.30;;;1.30;;
10052;SDS011;52418;53.134;8.236;2022-09-16T07:49:45;1.50;;;1.40;;
10052;SDS011;52418;53.134;8.236;2022-09-16T07:52:10;1.50;;;1.40;;
10052;SDS011;52418;53.134;8.236;2022-09-16T07:54:35;1.40;;;1.37;;
10052;SDS011;52418;53.134;8.236;2022-09-16T07:57:01;1.30;;;1.30;;
10052;SDS011;52418;53.134;8.236;2022-09-16T07:59:26;1.60;;;1.50;;
10052;SDS011;52418;53.134;8.236;2022-09-16T08:01:51;1.50;;;1.40;;
10052;SDS011;52418;53.134;8.236;2022-09-16T08:04:17;1.63;;;1.53;;
10052;SDS011;52418;53.134;8.236;2022-09-16T08:06:42;1.30;;;1.30;;
10052;SDS011;52418;53.134;8.236;2022-09-16T08:09:07;1.50;;;1.40;;
10052;SDS011;52418;53.134;8.236;2022-09-16T08:11:32;1.60;;;1.50;;
10052;SDS011;52418;53.134;8.236;2022-09-16T08:13:58;1.60;;;1.50;;
10052;SDS011;52418;53.134;8.236;2022-09-16T08:16:23;1.60;;;1.50;;
10052;SDS011;52418;53.134;8.236;2022-09-16T08:18:50;1.60;;;1.50;;
10052;SDS011;52418;53.134;8.236;2022-09-16T08:21:18;1.60;;;1.50;;
10052;SDS011;52418;53.134;8.236;2022-09-16T08:23:43;1.77;;;1.67;;
10052;SDS011;52418;53.134;8.236;2022-09-16T08:26:09;1.70;;;1.60;;
10052;SDS011;52418;53.134;8.236;2022-09-16T08:28:38;1.70;;;1.60;;
10052;SDS011;52418;53.134;8.236;2022-09-16T08:31:04;1.60;;;1.50;;
10052;SDS011;52418;53.134;8.236;2022-09-16T08:33:29;1.60;;;1.50;;
10052;SDS011;52418;53.134;8.236;2022-09-16T08:38:26;1.50;;;1.40;;
10052;SDS011;52418;53.134;8.236;2022-09-16T08:40:52;1.50;;;1.40;;
10052;SDS011;52418;53.134;8.236;2022-09-16T08:43:22;1.50;;;1.40;;
10052;SDS011;52418;53.134;8.236;2022-09-16T08:45:54;1.50;;;1.40;;
10052;SDS011;52418;53.134;8.236;2022-09-16T08:50:51;1.50;;;1.40;;
10052;SDS011;52418;53.134;8.236;2022-09-16T08:54:00;1.30;;;1.30;;
10052;SDS011;52418;53.134;8.236;2022-09-16T08:56:06;1.20;;;1.20;;
10052;SDS011;52418;53.134;8.236;2022-09-16T08:58:38;1.50;;;1.40;;
10052;SDS011;52418;53.134;8.236;2022-09-16T09:01:11;1.30;;;1.30;;
10052;SDS011;52418;53.134;8.236;2022-09-16T09:03:39;1.30;;;1.30;;
10052;SDS011;52418;53.134;8.236;2022-09-16T09:08:55;1.10;;;1.10;;
10052;SDS011;52418;53.134;8.236;2022-09-16T09:11:30;1.30;;;1.30;;
10052;SDS011;52418;53.134;8.236;2022-09-16T09:21:25;1.30;;;1.30;;
10052;SDS011;52418;53.134;8.236;2022-09-16T09:23:57;1.10;;;1.10;;
10052;SDS011;52418;53.134;8.236;2022-09-16T09:47:04;1.10;;;1.10;;
10052;SDS011;52418;53.134;8.236;2022-09-16T09:49:33;1.13;;;1.13;;
10052;SDS011;52418;53.134;8.236;2022-09-16T09:54:29;1.10;;;1.10;;
10052;SDS011;52418;53.134;8.236;2022-09-16T09:56:58;1.20;;;1.20;;
10052;SDS011;52418;53.134;8.236;2022-09-16T09:59:27;1.20;;;1.20;;
10052;SDS011;52418;53.134;8.236;2022-09-16T10:01:53;1.20;;;1.20;;
10052;SDS011;52418;53.134;8.236;2022-09-16T10:04:19;1.20;;;1.20;;
10052;SDS011;52418;53.134;8.236;2022-09-16T10:06:44;1.13;;;1.13;;
10052;SDS011;52418;53.134;8.236;2022-09-16T10:09:11;1.20;;;1.20;;
10052;SDS011;52418;53.134;8.236;2022-09-16T10:11:45;1.27;;;1.27;;
10052;SDS011;52418;53.134;8.236;2022-09-16T10:14:18;2.30;;;2.20;;
10052;SDS011;52418;53.134;8.236;2022-09-16T10:16:44;2.20;;;2.10;;
10052;SDS011;52418;53.134;8.236;2022-09-16T10:21:46;2.60;;;2.50;;
10052;SDS011;52418;53.134;8.236;2022-09-16T10:24:24;2.60;;;2.50;;
10052;SDS011;52418;53.134;8.236;2022-09-16T10:26:50;2.50;;;2.40;;
10052;SDS011;52418;53.134;8.236;2022-09-16T10:29:16;2.40;;;2.30;;
10052;SDS011;52418;53.134;8.236;2022-09-16T10:31:43;1.80;;;1.70;;
10052;SDS011;52418;53.134;8.236;2022-09-16T10:34:14;1.80;;;1.70;;
10052;SDS011;52418;53.134;8.236;2022-09-16T10:36:41;2.10;;;2.00;;
10052;SDS011;52418;53.134;8.236;2022-09-16T10:39:16;1.70;;;1.60;;
10052;SDS011;52418;53.134;8.236;2022-09-16T10:41:45;1.70;;;1.60;;
10052;SDS011;52418;53.134;8.236;2022-09-16T10:44:12;1.67;;;1.57;;
10052;SDS011;52418;53.134;8.236;2022-09-16T10:46:48;1.80;;;1.70;;
10052;SDS011;52418;53.134;8.236;2022-09-16T10:49:14;1.90;;;1.80;;
10052;SDS011;52418;53.134;8.236;2022-09-16T10:51:40;1.80;;;1.70;;
10052;SDS011;52418;53.134;8.236;2022-09-16T10:54:09;1.63;;;1.53;;
10052;SDS011;52418;53.134;8.236;2022-09-16T10:56:48;1.60;;;1.50;;
10052;SDS011;52418;53.134;8.236;2022-09-16T10:59:13;1.57;;;1.47;;
10052;SDS011;52418;53.134;8.236;2022-09-16T11:19:53;2.73;;;2.63;;
10052;SDS011;52418;53.134;8.236;2022-09-16T11:22:27;2.33;;;2.23;;
10052;SDS011;52418;53.134;8.236;2022-09-16T11:27:38;2.30;;;2.20;;
10052;SDS011;52418;53.134;8.236;2022-09-16T11:35:21;2.27;;;2.17;;
10052;SDS011;52418;53.134;8.236;2022-09-16T11:42:57;2.27;;;2.17;;
10052;SDS011;52418;53.134;8.236;2022-09-16T11:48:21;2.30;;;2.20;;
10052;SDS011;52418;53.134;8.236;2022-09-16T12:00:55;2.73;;;2.63;;
10052;SDS011;52418;53.134;8.236;2022-09-16T12:05:51;2.43;;;2.33;;
10052;SDS011;52418;53.134;8.236;2022-09-16T12:08:20;2.73;;;2.63;;
10052;SDS011;52418;53.134;8.236;2022-09-16T12:10:59;2.50;;;2.40;;
10052;SDS011;52418;53.134;8.236;2022-09-16T12:13:37;2.53;;;2.43;;
10052;SDS011;52418;53.134;8.236;2022-09-16T12:16:17;2.20;;;2.10;;
10052;SDS011;52418;53.134;8.236;2022-09-16T12:18:47;2.53;;;2.43;;
10052;SDS011;52418;53.134;8.236;2022-09-16T12:23:58;2.60;;;2.50;;
10052;SDS011;52418;53.134;8.236;2022-09-16T12:26:28;2.40;;;2.30;;
10052;SDS011;52418;53.134;8.236;2022-09-16T12:28:56;2.30;;;2.20;;
10052;SDS011;52418;53.134;8.236;2022-09-16T12:34:09;2.13;;;2.03;;
10052;SDS011;52418;53.134;8.236;2022-09-16T12:36:37;2.10;;;2.00;;
10052;SDS011;52418;53.134;8.236;2022-09-16T12:39:03;2.13;;;2.03;;
10052;SDS011;52418;53.134;8.236;2022-09-16T12:46:51;2.10;;;2.00;;
10052;SDS011;52418;53.134;8.236;2022-09-16T12:51:54;2.10;;;2.00;;
10052;SDS011;52418;53.134;8.236;2022-09-16T12:54:41;2.30;;;2.20;;
10052;SDS011;52418;53.134;8.236;2022-09-16T12:57:21;2.20;;;2.10;;
10052;SDS011;52418;53.134;8.236;2022-09-16T13:02:35;1.80;;;1.70;;
10052;SDS011;52418;53.134;8.236;2022-09-16T13:05:10;1.80;;;1.70;;
10052;SDS011;52418;53.134;8.236;2022-09-16T13:07:37;2.07;;;1.97;;
10052;SDS011;52418;53.134;8.236;2022-09-16T13:10:03;1.90;;;1.80;;
10052;SDS011;52418;53.134;8.236;2022-09-16T13:12:30;1.90;;;1.80;;
10052;SDS011;52418;53.134;8.236;2022-09-16T13:14:59;1.70;;;1.60;;
10052;SDS011;52418;53.134;8.236;2022-09-16T13:17:32;2.00;;;1.90;;
10052;SDS011;52418;53.134;8.236;2022-09-16T13:20:01;1.90;;;1.80;;
10052;SDS011;52418;53.134;8.236;2022-09-16T13:22:36;1.80;;;1.70;;
10052;SDS011;52418;53.134;8.236;2022-09-16T13:25:13;1.90;;;1.80;;
10052;SDS011;52418;53.134;8.236;2022-09-16T13:28:02;2.00;;;1.90;;
10052;SDS011;52418;53.134;8.236;2022-09-16T13:30:30;1.80;;;1.70;;
10052;SDS011;52418;53.134;8.236;2022-09-16T13:32:56;1.73;;;1.63;;
10052;SDS011;52418;53.134;8.236;2022-09-16T13:35:33;1.70;;;1.60;;
10052;SDS011;52418;53.134;8.236;2022-09-16T13:37:58;1.80;;;1.70;;
10052;SDS011;52418;53.134;8.236;2022-09-16T13:40:28;1.70;;;1.60;;
10052;SDS011;52418;53.134;8.236;2022-09-16T13:45:34;1.60;;;1.50;;
10052;SDS011;52418;53.134;8.236;2022-09-16T13:48:04;1.30;;;1.30;;
10052;SDS011;52418;53.134;8.236;2022-09-16T13:53:07;1.70;;;1.60;;
10052;SDS011;52418;53.134;8.236;2022-09-16T13:55:32;1.47;;;1.40;;
10052;SDS011;52418;53.134;8.236;2022-09-16T13:57:59;1.30;;;1.30;;
10052;SDS011;52418;53.134;8.236;2022-09-16T14:00:30;1.30;;;1.30;;
10052;SDS011;52418;53.134;8.236;2022-09-16T14:05:42;1.30;;;1.30;;
10052;SDS011;52418;53.134;8.236;2022-09-16T14:13:03;1.20;;;1.20;;
10052;SDS011;52418;53.134;8.236;2022-09-16T14:15:35;1.30;;;1.30;;
10052;SDS011;52418;53.134;8.236;2022-09-16T14:18:01;1.30;;;1.30;;
10052;SDS011;52418;53.134;8.236;2022-09-16T14:20:26;1.20;;;1.20;;
10052;SDS011;52418;53.134;8.236;2022-09-16T14:28:25;1.20;;;1.20;;
10052;SDS011;52418;53.134;8.236;2022-09-16T14:30:59;1.30;;;1.30;;
10052;SDS011;52418;53.134;8.236;2022-09-16T14:35:56;1.20;;;1.20;;
10052;SDS011;52418;53.134;8.236;2022-09-16T14:38:24;1.27;;;1.27;;
10052;SDS011;52418;53.134;8.236;2022-09-16T14:40:51;1.30;;;1.30;;
10052;SDS011;52418;53.134;8.236;2022-09-16T14:43:17;1.30;;;1.30;;
10052;SDS011;52418;53.134;8.236;2022-09-16T14:45:45;1.20;;;1.20;;
10052;SDS011;52418;53.134;8.236;2022-09-16T14:48:34;1.30;;;1.30;;
10052;SDS011;52418;53.134;8.236;2022-09-16T14:51:01;1.70;;;1.60;;
10052;SDS011;52418;53.134;8.236;2022-09-16T14:55:52;1.50;;;1.40;;
10052;SDS011;52418;53.134;8.236;2022-09-16T14:58:20;1.50;;;1.40;;
10052;SDS011;52418;53.134;8.236;2022-09-16T15:00:51;1.60;;;1.50;;
10052;SDS011;52418;53.134;8.236;2022-09-16T15:03:19;1.57;;;1.47;;
10052;SDS011;52418;53.134;8.236;2022-09-16T15:05:52;1.50;;;1.40;;
10052;SDS011;52418;53.134;8.236;2022-09-16T15:08:21;1.60;;;1.50;;
10052;SDS011;52418;53.134;8.236;2022-09-16T15:10:50;1.30;;;1.30;;
10052;SDS011;52418;53.134;8.236;2022-09-16T15:13:16;1.50;;;1.40;;
10052;SDS011;52418;53.134;8.236;2022-09-16T15:15:44;1.60;;;1.50;;
10052;SDS011;52418;53.134;8.236;2022-09-16T15:18:30;1.60;;;1.50;;
10052;SDS011;52418;53.134;8.236;2022-09-16T15:23:31;1.27;;;1.27;;
10052;SDS011;52418;53.134;8.236;2022-09-16T15:26:08;1.60;;;1.50;;
10052;SDS011;52418;53.134;8.236;2022-09-16T15:28:34;1.20;;;1.20;;
10052;SDS011;52418;53.134;8.236;2022-09-16T15:31:00;1.30;;;1.30;;
10052;SDS011;52418;53.134;8.236;2022-09-16T15:33:35;1.50;;;1.40;;
10052;SDS011;52418;53.134;8.236;2022-09-16T15:38:55;1.63;;;1.53;;
10052;SDS011;52418;53.134;8.236;2022-09-16T15:41:24;1.60;;;1.50;;
10052;SDS011;52418;53.134;8.236;2022-09-16T15:43:49;1.50;;;1.40;;
10052;SDS011;52418;53.134;8.236;2022-09-16T15:46:18;1.50;;;1.40;;
10052;SDS011;52418;53.134;8.236;2022-09-16T15:48:58;1.50;;;1.40;;
10052;SDS011;52418;53.134;8.236;2022-09-16T15:53:52;1.53;;;1.43;;
10052;SDS011;52418;53.134;8.236;2022-09-16T15:56:27;1.70;;;1.60;;
10052;SDS011;52418;53.134;8.236;2022-09-16T15:59:02;1.33;;;1.33;;
10052;SDS011;52418;53.134;8.236;2022-09-16T16:03:58;1.50;;;1.40;;
10052;SDS011;52418;53.134;8.236;2022-09-16T16:09:22;1.33;;;1.33;;
10052;SDS011;52418;53.134;8.236;2022-09-16T16:11:55;1.50;;;1.40;;
10052;SDS011;52418;53.134;8.236;2022-09-16T16:14:20;1.40;;;1.33;;
10052;SDS011;52418;53.134;8.236;2022-09-16T16:16:47;1.50;;;1.40;;
10052;SDS011;52418;53.134;8.236;2022-09-16T16:19:12;1.47;;;1.37;;
10052;SDS011;52418;53.134;8.236;2022-09-16T16:21:39;1.30;;;1.30;;
10052;SDS011;52418;53.134;8.236;2022-09-16T16:24:08;1.27;;;1.27;;
10052;SDS011;52418;53.134;8.236;2022-09-16T16:26:33;1.20;;;1.20;;
10052;SDS011;52418;53.134;8.236;2022-09-16T16:28:58;1.42;;;1.38;;
10052;SDS011;52418;53.134;8.236;2022-09-16T16:31:23;1.50;;;1.40;;
10052;SDS011;52418;53.134;8.236;2022-09-16T16:33:48;1.33;;;1.33;;
10052;SDS011;52418;53.134;8.236;2022-09-16T16:36:14;1.20;;;1.20;;
10052;SDS011;52418;53.134;8.236;2022-09-16T16:38:40;1.20;;;1.20;;
10052;SDS011;52418;53.134;8.236;2022-09-16T16:41:06;1.20;;;1.20;;
10052;SDS011;52418;53.134;8.236;2022-09-16T16:43:31;1.33;;;1.30;;
10052;SDS011;52418;53.134;8.236;2022-09-16T16:45:57;1.20;;;1.20;;
10052;SDS011;52418;53.134;8.236;2022-09-16T16:48:23;1.50;;;1.40;;
10052;SDS011;52418;53.134;8.236;2022-09-16T16:50:55;1.20;;;1.20;;
10052;SDS011;52418;53.134;8.236;2022-09-16T16:53:20;1.40;;;1.33;;
10052;SDS011;52418;53.134;8.236;2022-09-16T16:55:46;1.60;;;1.50;;
10052;SDS011;52418;53.134;8.236;2022-09-16T16:58:11;1.60;;;1.50;;
10052;SDS011;52418;53.134;8.236;2022-09-16T17:00:36;1.37;;;1.33;;
10052;SDS011;52418;53.134;8.236;2022-09-16T17:03:02;1.33;;;1.33;;
10052;SDS011;52418;53.134;8.236;2022-09-16T17:05:27;1.50;;;1.40;;
10052;SDS011;52418;53.134;8.236;2022-09-16T17:07:52;1.48;;;1.40;;
10052;SDS011;52418;53.134;8.236;2022-09-16T17:10:17;1.50;;;1.40;;
10052;SDS011;52418;53.134;8.236;2022-09-16T17:12:43;1.30;;;1.30;;
10052;SDS011;52418;53.134;8.236;2022-09-16T17:15:08;1.50;;;1.40;;
10052;SDS011;52418;53.134;8.236;2022-09-16T17:17:34;1.60;;;1.50;;
10052;SDS011;52418;53.134;8.236;2022-09-16T17:19:59;1.38;;;1.38;;
10052;SDS011;52418;53.134;8.236;2022-09-16T17:22:24;1.30;;;1.30;;
10052;SDS011;52418;53.134;8.236;2022-09-16T17:24:49;1.60;;;1.50;;
10052;SDS011;52418;53.134;8.236;2022-09-16T17:27:14;1.50;;;1.40;;
10052;SDS011;52418;53.134;8.236;2022-09-16T17:29:43;1.67;;;1.57;;
10052;SDS011;52418;53.134;8.236;2022-09-16T17:32:08;1.70;;;1.60;;
10052;SDS011;52418;53.134;8.236;2022-09-16T17:34:33;1.60;;;1.50;;
10052;SDS011;52418;53.134;8.236;2022-09-16T17:36:59;1.50;;;1.40;;
10052;SDS011;52418;53.134;8.236;2022-09-16T17:39:24;1.50;;;1.40;;
10052;SDS011;52418;53.134;8.236;2022-09-16T17:41:50;1.50;;;1.40;;
10052;SDS011;52418;53.134;8.236;2022-09-16T17:44:15;1.50;;;1.40;;
10052;SDS011;52418;53.134;8.236;2022-09-16T17:46:41;1.33;;;1.30;;
10052;SDS011;52418;53.134;8.236;2022-09-16T17:49:08;1.40;;;1.30;;
10052;SDS011;52418;53.134;8.236;2022-09-16T17:51:35;1.50;;;1.40;;
10052;SDS011;52418;53.134;8.236;2022-09-16T17:54:00;1.50;;;1.40;;
10052;SDS011;52418;53.134;8.236;2022-09-16T17:56:27;1.50;;;1.40;;
10052;SDS011;52418;53.134;8.236;2022-09-16T17:58:52;1.60;;;1.50;;
10052;SDS011;52418;53.134;8.236;2022-09-16T18:01:18;1.40;;;1.40;;